createdAt,value
2018-05-04T00:01:56.536Z,8.40
2018-05-04T00:04:24.848Z,8.50
2018-05-04T00:06:52.420Z,8.40
2018-05-04T00:09:19.977Z,8.40
2018-05-04T00:11:47.512Z,8.40
2018-05-04T00:14:15.034Z,8.30
2018-05-04T00:16:42.641Z,8.30
2018-05-04T00:19:10.163Z,8.40
2018-05-04T00:21:37.749Z,8.30
2018-05-04T00:24:05.300Z,8.20
2018-05-04T00:26:33.601Z,8.20
2018-05-04T00:29:01.156Z,8.20
2018-05-04T00:31:28.711Z,8.20
2018-05-04T00:33:56.272Z,8.20
2018-05-04T00:36:23.802Z,8.20
2018-05-04T00:38:51.347Z,8.20
2018-05-04T00:41:18.884Z,8.20
2018-05-04T00:43:46.422Z,8.00
2018-05-04T00:46:13.972Z,8.10
2018-05-04T00:48:41.507Z,8.00
2018-05-04T00:51:09.791Z,8.00
2018-05-04T00:53:49.782Z,7.80
2018-05-04T00:56:17.331Z,7.80
2018-05-04T00:58:44.864Z,7.50
2018-05-04T01:01:13.154Z,7.60
2018-05-04T01:03:40.697Z,7.60
2018-05-04T01:06:09.009Z,7.70
2018-05-04T01:08:36.540Z,7.70
2018-05-04T01:11:04.836Z,7.80
2018-05-04T01:13:32.358Z,7.70
2018-05-04T01:16:00.539Z,7.80
2018-05-04T01:18:28.829Z,7.70
2018-05-04T03:21:29.638Z,6.30
2018-05-04T03:23:57.774Z,6.30
2018-05-04T03:26:25.329Z,6.30
2018-05-04T03:28:53.636Z,6.30
2018-05-04T03:31:21.196Z,6.30
2018-05-04T03:33:48.734Z,6.30
2018-05-04T03:36:16.271Z,6.30
2018-05-04T03:38:44.580Z,6.20
2018-05-04T03:41:12.109Z,6.20
2018-05-04T03:43:40.415Z,6.30
2018-05-04T03:46:08.832Z,6.30
2018-05-04T03:48:36.370Z,6.30
2018-05-04T03:51:03.924Z,6.20
2018-05-04T03:53:31.454Z,6.20
2018-05-04T03:55:59.038Z,6.30
2018-05-04T03:58:38.450Z,6.20
2018-05-04T04:01:18.522Z,6.20
2018-05-04T04:03:57.802Z,6.20
2018-05-04T04:06:25.336Z,6.10
2018-05-04T04:08:52.872Z,6.10
2018-05-04T04:11:20.434Z,6.10
2018-05-04T04:13:47.979Z,6.10
2018-05-04T04:16:15.543Z,6.10
2018-05-04T04:18:43.088Z,6.10
2018-05-04T04:21:12.082Z,6.20
2018-05-04T04:23:40.413Z,6.10
2018-05-04T04:26:07.964Z,6.10
2018-05-04T04:28:35.500Z,6.20
2018-05-04T04:31:03.046Z,6.20
2018-05-04T04:33:31.364Z,6.20
2018-05-04T04:35:58.881Z,6.20
2018-05-04T04:38:27.183Z,6.30
2018-05-04T04:40:54.729Z,6.30
2018-05-04T04:43:22.269Z,6.30
2018-05-04T04:45:50.577Z,6.20
2018-05-04T04:48:18.133Z,6.20
2018-05-04T04:50:45.672Z,6.20
2018-05-04T04:53:13.988Z,6.40
2018-05-04T04:55:41.560Z,6.40
2018-05-04T04:58:09.119Z,6.40
2018-05-04T05:00:36.660Z,6.50
2018-05-04T05:03:04.188Z,6.50
2018-05-04T05:05:32.490Z,6.60
2018-05-04T05:08:00.032Z,6.60
2018-05-04T05:10:27.566Z,6.60
2018-05-04T05:12:55.130Z,6.70
2018-05-04T05:15:23.463Z,6.70
2018-05-04T05:17:50.999Z,6.70
2018-05-04T05:20:18.551Z,6.70
2018-05-04T05:22:46.104Z,6.80
2018-05-04T05:25:14.440Z,6.90
2018-05-04T05:27:41.980Z,6.90
2018-05-04T05:30:09.523Z,7.00
2018-05-04T05:32:37.055Z,7.10
2018-05-04T05:35:05.374Z,7.10
2018-05-04T05:37:32.920Z,7.10
2018-05-04T05:40:00.468Z,7.20
2018-05-04T05:42:28.037Z,7.30
2018-05-04T05:44:55.553Z,7.40
2018-05-04T05:47:23.094Z,7.40
2018-05-04T05:49:50.649Z,7.40
2018-05-04T05:52:18.188Z,7.50
2018-05-04T05:54:45.741Z,7.60
2018-05-04T05:57:13.282Z,7.70
2018-05-04T05:59:40.834Z,7.80
2018-05-04T06:02:09.155Z,7.90
2018-05-04T06:04:36.685Z,7.90
2018-05-04T06:07:04.204Z,7.90
2018-05-04T06:09:32.503Z,8.00
2018-05-04T06:12:00.803Z,8.00
2018-05-04T06:14:28.333Z,8.00
2018-05-04T06:16:56.660Z,8.00
2018-05-04T06:19:24.177Z,8.00
2018-05-04T06:21:52.495Z,8.10
2018-05-04T06:24:20.037Z,8.10
2018-05-04T06:26:47.598Z,8.20
2018-05-04T06:29:15.112Z,8.30
2018-05-04T06:31:42.650Z,8.30
2018-05-04T06:34:10.181Z,8.40
2018-05-04T06:36:37.732Z,8.50
2018-05-04T06:39:06.221Z,8.60
2018-05-04T06:41:37.381Z,8.70
2018-05-04T06:44:04.996Z,8.80
2018-05-04T06:49:06.405Z,9.10
2018-05-04T06:51:33.939Z,9.20
2018-05-04T06:54:02.230Z,9.40
2018-05-04T06:56:29.778Z,9.30
2018-05-04T06:58:57.311Z,9.50
2018-05-04T07:01:24.874Z,9.70
2018-05-04T07:03:52.415Z,9.80
2018-05-04T07:06:19.971Z,10.00
2018-05-04T07:08:47.516Z,10.10
2018-05-04T07:11:15.089Z,10.30
2018-05-04T07:13:42.636Z,10.40
2018-05-04T07:16:10.160Z,10.60
2018-05-04T07:18:37.711Z,10.70
2018-05-04T07:21:05.260Z,10.80
2018-05-04T07:23:33.596Z,11.10
2018-05-04T07:26:01.172Z,11.10
2018-05-04T07:28:28.721Z,11.30
2018-05-04T07:30:56.285Z,11.40
2018-05-04T07:33:24.745Z,11.60
2018-05-04T07:35:52.367Z,11.80
2018-05-04T09:38:32.561Z,16.00
2018-05-04T09:41:00.141Z,16.00
2018-05-04T09:43:27.768Z,16.10
2018-05-04T09:45:55.323Z,16.00
2018-05-04T09:48:23.632Z,16.20
2018-05-04T09:50:51.201Z,16.20
2018-05-04T09:53:18.790Z,16.20
2018-05-04T09:55:46.351Z,16.30
2018-05-04T09:58:13.905Z,16.30
2018-05-04T10:00:41.475Z,16.50
2018-05-04T10:03:09.041Z,16.60
2018-05-04T10:05:36.670Z,16.70
2018-05-04T10:08:04.239Z,16.70
2018-05-04T10:10:31.783Z,16.60
2018-05-04T10:12:59.345Z,16.70
2018-05-04T10:15:26.908Z,16.70
2018-05-04T10:17:54.494Z,16.70
2018-05-04T10:20:22.067Z,16.70
2018-05-04T10:22:49.631Z,16.80
2018-05-04T10:25:17.204Z,16.80
2018-05-04T10:27:44.774Z,16.90
2018-05-04T10:30:12.342Z,16.80
2018-05-04T10:32:39.926Z,16.80
2018-05-04T10:35:08.278Z,16.80
2018-05-04T10:37:35.868Z,16.90
2018-05-04T10:40:03.425Z,17.00
2018-05-04T10:42:30.993Z,17.10
2018-05-04T10:44:58.574Z,17.00
2018-05-04T10:47:26.193Z,17.00
2018-05-04T10:49:53.761Z,17.00
2018-05-04T10:52:21.312Z,17.10
2018-05-04T10:54:48.883Z,17.10
2018-05-04T10:57:16.517Z,17.20
2018-05-04T10:59:44.043Z,17.20
2018-05-04T11:02:11.617Z,17.30
2018-05-04T11:04:39.187Z,17.30
2018-05-04T11:07:07.516Z,17.30
2018-05-04T11:09:35.143Z,17.30
2018-05-04T11:12:02.755Z,17.30
2018-05-04T11:14:30.301Z,17.40
2018-05-04T11:16:57.884Z,17.30
2018-05-04T11:19:25.482Z,17.30
2018-05-04T11:21:53.017Z,17.30
2018-05-04T11:24:20.610Z,17.40
2018-05-04T11:26:48.175Z,17.40
2018-05-04T11:29:15.755Z,17.40
2018-05-04T11:31:43.330Z,17.40
2018-05-04T11:34:10.911Z,17.50
2018-05-04T11:36:38.506Z,17.50
2018-05-04T11:39:06.083Z,17.40
2018-05-04T11:41:34.074Z,17.40
2018-05-04T11:44:01.711Z,17.30
2018-05-04T11:46:29.282Z,17.40
2018-05-04T11:48:56.853Z,17.40
2018-05-04T11:51:24.445Z,17.30
2018-05-04T11:53:52.003Z,17.30
2018-05-04T11:56:20.440Z,17.30
2018-05-04T11:58:47.995Z,17.30
2018-05-04T12:01:15.578Z,17.40
2018-05-04T12:03:43.128Z,17.50
2018-05-04T12:06:10.809Z,17.40
2018-05-04T12:08:38.437Z,17.50
2018-05-04T12:11:06.059Z,17.40
2018-05-04T12:13:34.374Z,17.50
2018-05-04T12:16:02.017Z,17.60
2018-05-04T12:18:30.374Z,17.40
2018-05-04T12:20:57.991Z,17.40
2018-05-04T12:23:25.574Z,17.40
2018-05-04T12:25:53.167Z,17.40
2018-05-04T12:28:21.496Z,17.40
2018-05-04T12:30:49.067Z,17.50
2018-05-04T12:33:16.642Z,17.40
2018-05-04T12:35:44.202Z,17.40
2018-05-04T12:38:11.751Z,17.50
2018-05-04T12:40:39.314Z,17.40
2018-05-04T12:43:06.879Z,17.50
2018-05-04T12:45:34.423Z,17.50
2018-05-04T12:48:02.001Z,17.60
2018-05-04T12:50:29.572Z,17.80
2018-05-04T12:52:57.126Z,17.80
2018-05-04T12:55:24.688Z,17.80
2018-05-04T12:57:52.261Z,17.80
2018-05-04T13:00:20.576Z,17.80
2018-05-04T13:02:48.137Z,17.80
2018-05-04T13:05:15.780Z,17.90
2018-05-04T13:07:44.156Z,17.90
2018-05-04T13:10:11.877Z,17.90
2018-05-04T13:12:39.464Z,17.90
2018-05-04T13:15:07.020Z,17.90
2018-05-04T13:17:34.622Z,17.80
2018-05-04T13:20:02.182Z,17.80
2018-05-04T13:22:29.765Z,17.90
2018-05-04T13:24:57.319Z,17.80
2018-05-04T13:27:24.891Z,17.90
2018-05-04T13:29:53.220Z,17.80
2018-05-04T13:32:20.891Z,17.80
2018-05-04T13:34:48.457Z,17.80
2018-05-04T13:37:16.055Z,17.70
2018-05-04T13:39:43.614Z,17.70
2018-05-04T13:42:11.168Z,17.50
2018-05-04T13:44:38.774Z,17.60
2018-05-04T13:47:06.790Z,17.60
2018-05-04T13:49:34.504Z,17.80
2018-05-04T13:52:02.848Z,17.80
2018-05-04T13:54:30.447Z,17.80
2018-05-04T13:56:58.758Z,17.70
2018-05-04T13:59:26.329Z,17.70
2018-05-04T14:01:53.944Z,17.80
2018-05-04T14:04:22.275Z,17.60
2018-05-04T14:06:49.835Z,17.60
2018-05-04T14:09:17.452Z,17.50
2018-05-04T14:11:45.063Z,17.50
2018-05-04T14:14:12.622Z,17.40
2018-05-04T14:16:40.144Z,17.60
2018-05-04T14:19:07.720Z,17.60
2018-05-04T14:21:35.274Z,17.40
2018-05-04T14:24:02.921Z,17.40
2018-05-04T14:26:31.368Z,17.40
2018-05-04T14:28:58.965Z,17.40
2018-05-04T14:31:27.298Z,17.60
2018-05-04T14:33:54.851Z,17.60
2018-05-04T14:36:22.496Z,17.70
2018-05-04T14:38:50.124Z,17.70
2018-05-04T14:41:17.720Z,17.80
2018-05-04T14:43:45.325Z,17.70
2018-05-04T14:46:13.680Z,17.60
2018-05-04T14:48:41.225Z,17.60
2018-05-04T14:51:09.576Z,17.60
2018-05-04T14:53:37.733Z,17.60
2018-05-04T14:56:05.591Z,17.70
2018-05-04T14:58:33.219Z,17.80
2018-05-04T15:01:00.869Z,17.70
2018-05-04T15:03:29.202Z,17.70
2018-05-04T15:05:57.542Z,17.80
2018-05-04T15:08:25.106Z,17.80
2018-05-04T15:10:52.696Z,17.80
2018-05-04T15:13:21.064Z,17.80
2018-05-04T15:15:49.401Z,17.70
2018-05-04T15:18:17.048Z,17.70
2018-05-04T15:20:44.631Z,17.70
2018-05-04T15:23:12.189Z,17.70
2018-05-04T15:25:39.760Z,17.70
2018-05-04T15:30:57.966Z,17.80
2018-05-04T15:33:26.274Z,17.70
2018-05-04T15:35:53.861Z,17.70
2018-05-04T15:38:21.375Z,17.70
2018-05-04T15:40:48.912Z,17.70
2018-05-04T15:43:17.242Z,17.70
2018-05-04T15:45:44.769Z,17.70
2018-05-04T15:48:17.913Z,17.70
2018-05-04T15:50:51.052Z,17.70
2018-05-04T15:53:18.626Z,17.60
2018-05-04T15:55:46.206Z,17.60
2018-05-04T15:58:13.743Z,17.50
2018-05-04T16:00:41.292Z,17.50
2018-05-04T16:03:08.861Z,17.40
2018-05-04T16:05:36.395Z,17.30
2018-05-04T16:08:04.729Z,17.20
2018-05-04T16:10:32.276Z,17.20
2018-05-04T18:16:23.080Z,16.10
2018-05-04T18:18:51.093Z,16.10
2018-05-04T18:21:18.943Z,16.00
2018-05-04T18:23:47.219Z,16.00
2018-05-04T18:26:16.330Z,15.90
2018-05-04T18:31:36.355Z,15.70
2018-05-04T18:34:04.855Z,15.80
2018-05-04T18:36:33.287Z,15.70
2018-05-04T18:39:02.390Z,15.50
2018-05-04T18:41:31.070Z,15.50
2018-05-04T18:44:00.090Z,15.40
2018-05-04T18:46:28.704Z,15.40
2018-05-04T18:48:57.107Z,15.40
2018-05-04T18:51:25.403Z,15.30
2018-05-04T18:53:53.886Z,15.30
2018-05-04T18:56:22.425Z,15.30
2018-05-04T18:58:50.198Z,15.20
2018-05-04T19:01:19.381Z,15.10
2018-05-04T19:03:47.067Z,15.10
2018-05-04T19:06:15.555Z,15.00
2018-05-04T19:08:43.398Z,15.00
2018-05-04T19:11:11.613Z,15.00
2018-05-04T19:13:39.220Z,15.00
2018-05-04T19:16:07.693Z,14.90
2018-05-04T19:18:37.387Z,14.90
2018-05-04T19:21:05.988Z,14.80
2018-05-04T19:23:34.436Z,14.80
2018-05-04T19:26:03.815Z,14.60
2018-05-04T19:28:32.971Z,14.60
2018-05-04T19:31:01.625Z,14.60
2018-05-04T19:33:30.863Z,14.50
2018-05-04T19:35:59.521Z,14.50
2018-05-04T19:38:28.180Z,14.40
2018-05-04T19:40:56.870Z,14.40
2018-05-04T19:43:25.299Z,14.30
2018-05-04T19:45:53.791Z,14.30
2018-05-04T19:48:22.541Z,14.30
2018-05-04T19:50:50.935Z,14.20
2018-05-04T19:53:19.402Z,14.20
2018-05-04T19:55:48.677Z,14.10
2018-05-04T19:58:18.037Z,14.10
2018-05-04T20:00:46.787Z,14.00
2018-05-04T20:03:15.245Z,14.00
2018-05-04T20:05:43.753Z,14.00
2018-05-04T20:08:12.260Z,13.90
2018-05-04T20:10:40.822Z,13.90
2018-05-04T20:13:09.299Z,13.90
2018-05-04T20:15:37.922Z,13.80
2018-05-04T20:18:06.232Z,13.80
2018-05-04T20:20:34.872Z,13.70
2018-05-04T20:23:03.465Z,13.70
2018-05-04T20:25:32.023Z,13.70
2018-05-04T20:28:00.683Z,13.60
2018-05-04T20:30:30.129Z,13.40
2018-05-04T20:32:58.662Z,13.40
2018-05-04T20:35:27.379Z,13.40
2018-05-04T20:37:55.816Z,13.40
2018-05-04T20:40:24.416Z,13.30
2018-05-04T20:42:53.650Z,13.20
2018-05-04T20:45:22.380Z,13.20
2018-05-04T20:47:50.879Z,13.20
2018-05-04T20:50:19.483Z,13.10
2018-05-04T20:52:47.820Z,13.10
2018-05-04T20:55:16.415Z,13.10
2018-05-04T20:57:44.986Z,13.00
2018-05-04T21:00:13.632Z,13.00
2018-05-04T21:02:42.096Z,13.00
2018-05-04T21:05:11.283Z,13.00
2018-05-04T21:07:39.551Z,13.00
2018-05-04T21:10:07.859Z,13.00
2018-05-04T21:12:35.599Z,12.90
2018-05-04T21:15:03.850Z,12.90
2018-05-04T21:17:31.742Z,12.80
2018-05-04T21:19:59.600Z,12.80
2018-05-04T21:22:28.285Z,12.80
2018-05-04T21:24:56.011Z,12.70
2018-05-04T21:27:23.627Z,12.70
2018-05-04T21:29:51.411Z,12.70
2018-05-04T21:32:19.020Z,12.60
2018-05-04T21:34:46.605Z,12.60
2018-05-04T21:37:14.181Z,12.50
2018-05-04T21:39:41.783Z,12.40
2018-05-04T21:42:10.121Z,12.30
2018-05-04T21:44:37.710Z,12.30
2018-05-04T21:47:05.354Z,12.30
2018-05-04T21:49:33.010Z,12.30
2018-05-04T21:52:00.881Z,12.20
2018-05-04T21:54:28.435Z,12.10
2018-05-04T21:56:55.986Z,12.10
2018-05-04T21:59:23.532Z,12.00
2018-05-04T22:01:51.095Z,12.00
2018-05-04T22:04:18.648Z,12.00
2018-05-04T22:06:46.222Z,12.00
2018-05-04T22:09:13.778Z,11.90
2018-05-04T22:11:42.184Z,11.90
2018-05-04T22:14:09.746Z,11.90
2018-05-04T22:16:37.314Z,11.80
2018-05-04T22:19:04.880Z,11.80
2018-05-04T22:21:32.464Z,11.80
2018-05-04T22:24:00.034Z,11.80
2018-05-04T22:26:28.387Z,11.70
2018-05-04T22:28:55.991Z,11.60
2018-05-04T22:31:23.609Z,11.60
2018-05-04T22:33:51.173Z,11.60
2018-05-04T22:36:18.755Z,11.40
2018-05-04T22:38:47.070Z,11.40
2018-05-04T22:41:14.647Z,11.40
2018-05-04T22:43:42.201Z,11.30
2018-05-04T22:46:09.778Z,11.30
2018-05-04T22:48:37.325Z,11.20
2018-05-04T22:51:04.872Z,11.20
2018-05-04T22:53:32.425Z,11.20
2018-05-04T22:55:59.964Z,11.20
2018-05-04T22:58:28.286Z,11.20
2018-05-04T23:00:55.862Z,11.10
2018-05-04T23:03:23.453Z,11.10
2018-05-04T23:05:51.780Z,11.20
2018-05-04T23:08:19.337Z,11.10
2018-05-04T23:10:46.921Z,11.10
2018-05-04T23:13:14.622Z,11.10
2018-05-04T23:15:42.175Z,11.10
2018-05-04T23:18:10.499Z,11.00
2018-05-04T23:20:38.075Z,11.00
2018-05-04T23:23:05.659Z,11.00
2018-05-04T23:25:33.244Z,11.00
2018-05-04T23:28:00.790Z,10.90
2018-05-04T23:30:29.136Z,10.90
2018-05-04T23:32:57.462Z,10.90
2018-05-04T23:35:25.784Z,10.80
2018-05-04T23:37:53.337Z,10.80
2018-05-04T23:40:20.901Z,10.80
2018-05-04T23:42:48.452Z,10.70
2018-05-04T23:45:16.030Z,10.70
2018-05-04T23:47:43.602Z,10.60
2018-05-04T23:50:11.154Z,10.50
2018-05-04T23:52:38.713Z,10.50
2018-05-04T23:55:06.259Z,10.50
2018-05-04T23:57:33.817Z,10.50
